createdAt,value
2018-10-01T00:01:35.836Z,5.01
2018-10-01T00:04:05.653Z,5.02
2018-10-01T00:06:35.412Z,5.03
2018-10-01T00:09:06.544Z,5.01
2018-10-01T00:11:36.043Z,5.05
2018-10-01T00:14:05.923Z,5.10
2018-10-01T00:16:35.726Z,5.08
2018-10-01T00:19:09.612Z,5.07
2018-10-01T00:21:44.422Z,5.07
2018-10-01T00:24:14.180Z,5.06
2018-10-01T00:26:43.906Z,5.04
2018-10-01T00:29:13.672Z,5.04
2018-10-01T00:31:43.454Z,5.02
2018-10-01T00:34:13.193Z,4.97
2018-10-01T00:36:42.978Z,4.97
2018-10-01T00:39:12.409Z,4.98
2018-10-01T00:41:42.466Z,4.93
2018-10-01T00:44:12.273Z,4.93
2018-10-01T00:46:41.757Z,4.92
2018-10-01T00:49:11.211Z,4.94
2018-10-01T00:51:40.597Z,4.96
2018-10-01T00:54:10.419Z,4.91
2018-10-01T00:56:39.886Z,4.88
2018-10-01T00:59:09.894Z,4.87
2018-10-01T01:01:39.654Z,4.85
2018-10-01T01:04:09.060Z,4.83
2018-10-01T01:06:38.953Z,4.81
2018-10-01T01:09:09.729Z,4.85
2018-10-01T01:11:39.549Z,4.89
2018-10-01T01:14:08.977Z,4.94
2018-10-01T01:16:38.404Z,4.92
2018-10-01T01:19:08.152Z,4.90
2018-10-01T01:21:37.619Z,4.86
2018-10-01T01:24:07.017Z,4.87
2018-10-01T01:26:36.529Z,4.80
2018-10-01T01:29:05.993Z,4.75
2018-10-01T01:31:35.985Z,4.69
2018-10-01T01:34:05.761Z,4.63
2018-10-01T01:36:35.225Z,4.57
2018-10-01T01:39:07.841Z,4.50
2018-10-01T01:41:37.695Z,4.47
2018-10-01T01:44:07.709Z,4.44
2018-10-01T01:46:37.797Z,4.42
2018-10-01T01:49:07.460Z,4.40
2018-10-01T01:51:37.417Z,4.38
2018-10-01T01:54:07.263Z,4.37
2018-10-01T01:56:37.137Z,4.32
2018-10-01T01:59:07.011Z,4.40
2018-10-01T02:01:36.905Z,4.35
2018-10-01T02:04:06.737Z,4.30
2018-10-01T02:06:36.245Z,4.23
2018-10-01T02:09:08.940Z,4.18
2018-10-01T02:11:38.473Z,4.19
2018-10-01T02:14:08.482Z,4.21
2018-10-01T02:16:38.607Z,4.21
2018-10-01T02:19:08.512Z,4.15
2018-10-01T02:21:38.419Z,4.08
2018-10-01T02:24:08.247Z,4.04
2018-10-01T02:26:37.804Z,3.99
2018-10-01T02:29:07.737Z,3.94
2018-10-01T02:31:37.671Z,3.86
2018-10-01T02:34:07.777Z,3.82
2018-10-01T02:36:37.725Z,3.85
2018-10-01T02:39:12.653Z,3.91
2018-10-01T02:41:42.264Z,4.03
2018-10-01T02:44:11.768Z,3.94
2018-10-01T02:46:41.385Z,3.92
2018-10-01T02:49:11.027Z,3.79
2018-10-01T02:51:46.265Z,3.70
2018-10-01T02:54:21.058Z,3.64
2018-10-01T02:56:50.854Z,3.61
2018-10-01T02:59:20.332Z,3.63
2018-10-01T03:01:49.880Z,3.62
2018-10-01T03:04:19.769Z,3.59
2018-10-01T03:06:49.687Z,3.53
2018-10-01T03:09:19.103Z,3.49
2018-10-01T03:11:48.895Z,3.53
2018-10-01T03:14:18.372Z,3.50
2018-10-01T03:16:48.137Z,3.53
2018-10-01T03:19:17.592Z,3.59
2018-10-01T03:21:47.792Z,3.61
2018-10-01T03:24:17.723Z,3.61
2018-10-01T03:26:47.201Z,3.60
2018-10-01T03:29:16.971Z,3.64
2018-10-01T03:31:46.796Z,3.65
2018-10-01T03:34:16.212Z,3.63
2018-10-01T03:36:46.024Z,3.64
2018-10-01T03:39:15.773Z,3.65
2018-10-01T03:41:45.214Z,3.69
2018-10-01T03:44:15.033Z,3.72
2018-10-01T03:46:44.484Z,3.70
2018-10-01T03:49:15.236Z,3.67
2018-10-01T03:51:44.712Z,3.64
2018-10-01T03:54:14.500Z,3.64
2018-10-01T03:56:44.293Z,3.60
2018-10-01T03:59:13.781Z,3.62
2018-10-01T04:01:43.582Z,3.60
2018-10-01T04:04:13.305Z,3.53
2018-10-01T04:06:43.160Z,3.48
2018-10-01T04:09:12.732Z,3.51
2018-10-01T04:11:42.478Z,3.47
2018-10-01T04:14:12.465Z,3.41
2018-10-01T04:16:41.871Z,3.39
2018-10-01T04:19:11.880Z,3.38
2018-10-01T04:21:41.895Z,3.42
2018-10-01T04:24:11.491Z,3.48
2018-10-01T04:26:41.312Z,3.50
2018-10-01T04:29:10.959Z,3.51
2018-10-01T04:31:40.476Z,3.53
2018-10-01T04:34:10.164Z,3.55
2018-10-01T04:36:40.224Z,3.54
2018-10-01T04:39:12.948Z,3.53
2018-10-01T04:41:42.859Z,3.51
2018-10-01T04:44:12.655Z,3.49
2018-10-01T04:46:42.505Z,3.47
2018-10-01T04:49:12.578Z,3.44
2018-10-01T04:51:43.190Z,3.47
2018-10-01T04:54:12.704Z,3.46
2018-10-01T04:56:42.257Z,3.46
2018-10-01T04:59:11.653Z,3.45
2018-10-01T05:01:41.051Z,3.46
2018-10-01T05:04:10.511Z,3.47
2018-10-01T05:06:39.904Z,3.48
2018-10-01T05:09:10.716Z,3.50
2018-10-01T05:11:40.421Z,3.53
2018-10-01T05:14:10.244Z,3.56
2018-10-01T05:16:39.659Z,3.61
2018-10-01T05:19:09.079Z,3.67
2018-10-01T05:21:38.475Z,3.77
2018-10-01T05:24:07.903Z,4.05
2018-10-01T05:26:37.339Z,4.27
2018-10-01T05:29:07.507Z,4.26
2018-10-01T05:31:37.384Z,4.22
2018-10-01T05:34:07.249Z,4.21
2018-10-01T05:36:36.791Z,4.21
2018-10-01T05:39:10.778Z,4.27
2018-10-01T05:41:40.502Z,4.24
2018-10-01T05:44:10.330Z,4.18
2018-10-01T05:46:41.174Z,4.13
2018-10-01T05:49:10.726Z,4.12
2018-10-01T05:51:40.427Z,4.17
2018-10-01T05:54:10.324Z,4.18
2018-10-01T05:56:39.842Z,4.21
2018-10-01T05:59:10.075Z,4.26
2018-10-01T06:01:39.739Z,4.33
2018-10-01T06:04:09.125Z,4.40
2018-10-01T06:06:38.557Z,4.44
2018-10-01T06:09:10.925Z,4.54
2018-10-01T06:11:40.425Z,4.69
2018-10-01T06:14:09.762Z,4.78
2018-10-01T06:16:39.563Z,4.92
2018-10-01T06:19:09.400Z,5.03
2018-10-01T06:21:38.889Z,5.14
2018-10-01T06:24:08.299Z,5.22
2018-10-01T06:26:38.054Z,5.23
2018-10-01T06:29:07.863Z,5.28
2018-10-01T06:31:37.232Z,5.40
2018-10-01T06:34:06.997Z,5.56
2018-10-01T06:36:36.716Z,5.76
2018-10-01T06:39:09.169Z,5.84
2018-10-01T06:41:39.226Z,5.94
2018-10-01T06:44:09.267Z,6.00
2018-10-01T06:46:39.083Z,6.05
2018-10-01T06:49:09.164Z,6.12
2018-10-01T06:51:38.923Z,6.12
2018-10-01T06:54:08.662Z,6.15
2018-10-01T06:56:38.075Z,6.22
2018-10-01T06:59:07.578Z,6.35
2018-10-01T07:01:37.332Z,6.46
2018-10-01T07:04:07.160Z,6.59
2018-10-01T07:06:36.926Z,6.76
2018-10-01T07:09:10.010Z,7.00
2018-10-01T07:11:40.458Z,7.32
2018-10-01T07:14:09.728Z,7.59
2018-10-01T07:16:39.589Z,7.77
2018-10-01T07:19:09.326Z,7.86
2018-10-01T07:21:39.170Z,8.00
2018-10-01T07:24:08.918Z,8.15
2018-10-01T07:26:38.770Z,8.21
2018-10-01T07:29:08.552Z,8.30
2018-10-01T07:31:38.340Z,8.43
2018-10-01T07:34:08.154Z,8.54
2018-10-01T07:36:37.928Z,8.76
2018-10-01T07:39:09.062Z,8.97
2018-10-01T07:41:38.882Z,9.15
2018-10-01T07:44:09.034Z,9.39
2018-10-01T07:46:38.920Z,9.75
2018-10-01T07:49:08.684Z,10.02
2018-10-01T07:51:38.414Z,10.20
2018-10-01T07:54:08.911Z,10.31
2018-10-01T07:56:38.722Z,10.37
2018-10-01T07:59:08.734Z,10.35
2018-10-01T08:01:38.445Z,10.27
2018-10-01T08:04:08.238Z,10.12
2018-10-01T08:06:37.943Z,10.17
2018-10-01T08:09:10.209Z,10.34
2018-10-01T08:11:40.045Z,10.67
2018-10-01T08:14:09.917Z,10.90
2018-10-01T08:16:39.658Z,11.22
2018-10-01T08:19:09.711Z,11.43
2018-10-01T08:21:39.523Z,11.79
2018-10-01T08:24:09.310Z,11.89
2018-10-01T08:26:39.204Z,11.79
2018-10-01T08:29:09.024Z,11.57
2018-10-01T08:31:38.710Z,11.30
2018-10-01T08:34:08.478Z,11.08
2018-10-01T08:36:38.219Z,11.01
2018-10-01T08:39:13.334Z,10.98
2018-10-01T08:41:43.285Z,10.78
2018-10-01T08:44:13.820Z,10.79
2018-10-01T08:46:43.595Z,10.83
2018-10-01T08:50:21.265Z,10.88
2018-10-01T08:53:03.563Z,10.95
2018-10-01T08:55:33.396Z,11.10
2018-10-01T08:58:03.119Z,11.18
2018-10-01T09:00:32.972Z,11.35
2018-10-01T09:03:02.945Z,11.70
2018-10-01T09:05:32.809Z,12.05
2018-10-01T09:08:02.652Z,12.35
2018-10-01T09:10:32.482Z,12.64
2018-10-01T09:13:02.282Z,13.08
2018-10-01T09:15:32.067Z,13.57
2018-10-01T09:18:01.858Z,14.01
2018-10-01T09:20:31.596Z,14.48
2018-10-01T09:23:01.395Z,14.77
2018-10-01T09:25:31.206Z,14.84
2018-10-01T09:28:00.999Z,14.92
2018-10-01T09:30:30.722Z,14.94
2018-10-01T09:33:00.481Z,15.05
2018-10-01T09:35:30.315Z,15.52
2018-10-01T09:38:00.187Z,15.70
2018-10-01T09:40:30.072Z,15.73
2018-10-01T09:42:59.856Z,16.19
2018-10-01T09:45:29.715Z,16.53
2018-10-01T09:47:59.596Z,16.66
2018-10-01T09:50:29.379Z,16.85
2018-10-01T09:52:59.123Z,16.90
2018-10-01T09:55:28.871Z,16.71
2018-10-01T09:57:58.634Z,16.67
2018-10-01T10:00:33.414Z,16.98
2018-10-01T10:03:03.173Z,16.89
2018-10-01T10:05:32.913Z,17.00
2018-10-01T10:08:02.722Z,16.96
2018-10-01T10:10:32.542Z,16.92
2018-10-01T10:13:02.300Z,16.83
2018-10-01T10:15:32.089Z,16.76
2018-10-01T10:18:01.900Z,16.77
2018-10-01T10:20:31.711Z,16.77
2018-10-01T10:23:01.536Z,16.81
2018-10-01T10:25:31.325Z,16.74
2018-10-01T10:28:01.102Z,16.75
2018-10-01T10:30:30.917Z,16.70
2018-10-01T10:33:00.801Z,16.87
2018-10-01T10:35:30.632Z,16.87
2018-10-01T10:38:00.442Z,16.93
2018-10-01T10:40:30.391Z,16.91
2018-10-01T10:43:00.201Z,16.86
2018-10-01T10:45:30.044Z,16.82
2018-10-01T10:47:59.829Z,16.72
2018-10-01T10:50:29.579Z,16.74
2018-10-01T10:52:59.345Z,16.66
2018-10-01T10:55:29.132Z,16.64
2018-10-01T10:57:58.925Z,16.47
2018-10-01T11:00:28.707Z,16.45
2018-10-01T11:02:58.409Z,16.44
2018-10-01T11:05:28.117Z,16.38
2018-10-01T11:07:57.975Z,16.34
2018-10-01T11:10:27.770Z,16.34
2018-10-01T11:12:57.471Z,16.61
2018-10-01T11:15:27.322Z,16.72
2018-10-01T11:17:57.121Z,16.73
2018-10-01T11:20:27.076Z,17.04
2018-10-01T11:22:56.715Z,17.17
2018-10-01T11:25:26.561Z,17.05
2018-10-01T11:27:56.439Z,17.08
2018-10-01T11:30:26.229Z,17.18
2018-10-01T11:32:56.099Z,17.32
2018-10-01T11:35:26.100Z,17.32
2018-10-01T11:37:55.671Z,17.48
2018-10-01T11:40:25.446Z,17.41
2018-10-01T11:42:55.209Z,17.36
2018-10-01T11:45:25.094Z,17.15
2018-10-01T11:47:54.873Z,17.16
2018-10-01T11:50:24.690Z,17.07
2018-10-01T11:52:54.551Z,17.12
2018-10-01T11:55:24.352Z,17.34
2018-10-01T11:57:54.125Z,17.55
2018-10-01T12:00:23.969Z,17.53
2018-10-01T12:02:53.757Z,17.55
2018-10-01T12:05:23.602Z,17.46
2018-10-01T12:07:54.347Z,17.44
2018-10-01T12:10:24.149Z,17.28
2018-10-01T12:12:53.950Z,17.16
2018-10-01T12:15:23.818Z,17.02
2018-10-01T12:17:53.572Z,16.87
2018-10-01T12:20:23.314Z,16.78
2018-10-01T12:22:53.126Z,16.77
2018-10-01T12:25:22.890Z,17.03
2018-10-01T12:27:52.639Z,17.17
2018-10-01T12:30:22.386Z,17.08
2018-10-01T12:32:52.138Z,17.14
2018-10-01T12:35:21.980Z,17.09
2018-10-01T12:37:51.716Z,17.03
2018-10-01T12:40:21.475Z,16.96
2018-10-01T12:42:51.447Z,16.88
2018-10-01T12:45:21.259Z,16.92
2018-10-01T12:47:51.025Z,16.87
2018-10-01T12:50:20.761Z,16.85
2018-10-01T12:52:50.560Z,16.84
2018-10-01T12:55:20.440Z,16.90
2018-10-01T12:57:50.242Z,16.94
2018-10-01T13:00:19.992Z,17.26
2018-10-01T13:02:49.890Z,17.04
2018-10-01T13:05:19.656Z,17.09
2018-10-01T13:07:49.500Z,17.58
2018-10-01T13:10:19.320Z,17.78
2018-10-01T13:12:49.118Z,17.73
2018-10-01T13:15:18.884Z,17.62
2018-10-01T13:17:48.639Z,17.71
2018-10-01T13:20:18.443Z,17.75
2018-10-01T13:22:48.320Z,17.63
2018-10-01T13:25:18.136Z,17.77
2018-10-01T13:27:47.850Z,17.49
2018-10-01T13:30:18.092Z,17.51
2018-10-01T13:32:47.863Z,17.39
2018-10-01T13:35:17.675Z,17.47
2018-10-01T13:37:47.505Z,17.53
2018-10-01T13:40:17.316Z,17.41
2018-10-01T13:42:47.414Z,17.19
2018-10-01T13:45:17.288Z,16.82
2018-10-01T13:47:47.168Z,16.35
2018-10-01T13:50:16.963Z,15.90
2018-10-01T13:52:46.789Z,15.74
2018-10-01T13:55:16.683Z,15.53
2018-10-01T13:57:46.452Z,15.42
2018-10-01T14:00:16.321Z,15.33
2018-10-01T14:02:46.090Z,15.37
2018-10-01T14:05:15.845Z,15.26
2018-10-01T14:07:45.683Z,15.30
2018-10-01T14:10:15.407Z,14.96
2018-10-01T14:12:45.186Z,14.74
2018-10-01T14:15:15.028Z,14.62
2018-10-01T14:17:45.007Z,14.50
2018-10-01T14:20:14.860Z,14.33
2018-10-01T14:22:44.690Z,14.21
2018-10-01T14:25:14.516Z,14.10
2018-10-01T14:27:44.810Z,14.05
2018-10-01T14:30:14.673Z,14.01
2018-10-01T14:32:44.475Z,13.91
2018-10-01T14:35:14.296Z,13.79
2018-10-01T14:37:44.599Z,13.66
2018-10-01T14:40:14.356Z,13.62
2018-10-01T14:42:44.195Z,13.47
2018-10-01T14:45:14.156Z,13.49
2018-10-01T14:47:43.991Z,13.48
2018-10-01T14:50:13.963Z,13.37
2018-10-01T14:52:43.727Z,13.20
2018-10-01T14:55:13.575Z,13.18
2018-10-01T14:57:43.367Z,13.14
2018-10-01T15:00:13.201Z,13.03
2018-10-01T15:02:42.998Z,12.91
2018-10-01T15:05:12.810Z,12.93
2018-10-01T15:07:42.622Z,12.63
2018-10-01T15:10:12.428Z,12.61
2018-10-01T15:12:42.228Z,12.45
2018-10-01T15:15:13.113Z,12.45
2018-10-01T15:17:42.868Z,12.42
2018-10-01T15:20:12.702Z,12.43
2018-10-01T15:22:42.539Z,12.39
2018-10-01T15:25:12.356Z,12.45
2018-10-01T15:27:42.123Z,12.49
2018-10-01T15:30:11.953Z,12.38
2018-10-01T15:32:41.703Z,12.36
2018-10-01T15:35:11.589Z,12.28
2018-10-01T15:37:41.365Z,12.31
2018-10-01T15:40:11.189Z,12.30
2018-10-01T15:42:41.024Z,12.24
2018-10-01T15:45:10.974Z,12.25
2018-10-01T15:47:40.856Z,12.16
2018-10-01T15:50:10.695Z,12.14
2018-10-01T15:52:40.580Z,12.08
2018-10-01T15:55:10.496Z,12.05
2018-10-01T15:57:40.329Z,12.02
2018-10-01T16:00:10.201Z,12.03
2018-10-01T16:02:40.069Z,12.04
2018-10-01T16:05:09.880Z,12.07
2018-10-01T16:07:39.620Z,12.05
2018-10-01T16:10:09.463Z,12.05
2018-10-01T16:12:39.577Z,12.00
2018-10-01T16:15:09.458Z,11.99
2018-10-01T16:17:39.414Z,12.02
2018-10-01T16:20:09.453Z,12.00
2018-10-01T16:22:39.251Z,12.02
2018-10-01T16:25:08.922Z,11.95
2018-10-01T16:27:39.275Z,11.92
2018-10-01T16:30:09.534Z,11.91
2018-10-01T16:32:39.584Z,11.89
2018-10-01T16:35:09.834Z,11.79
2018-10-01T16:37:39.756Z,11.78
2018-10-01T16:40:11.677Z,11.67
2018-10-01T16:42:42.166Z,11.53
2018-10-01T16:45:11.900Z,11.47
2018-10-01T16:47:41.721Z,11.40
2018-10-01T16:50:11.704Z,11.41
2018-10-01T16:52:41.546Z,11.58
2018-10-01T16:55:12.445Z,11.47
2018-10-01T16:57:42.377Z,11.61
2018-10-01T17:00:12.794Z,11.64
2018-10-01T17:02:42.690Z,11.55
2018-10-01T17:05:13.400Z,11.71
2018-10-01T17:07:43.269Z,11.59
2018-10-01T17:10:16.953Z,11.58
2018-10-01T17:12:46.937Z,11.52
2018-10-01T17:15:19.893Z,11.55
2018-10-01T17:17:53.319Z,11.50
2018-10-01T17:20:23.145Z,11.54
2018-10-01T17:25:34.645Z,11.37
2018-10-01T17:28:04.650Z,11.35
2018-10-01T17:30:34.368Z,11.26
2018-10-01T17:33:04.259Z,11.24
2018-10-01T17:35:33.694Z,11.07
2018-10-01T17:38:03.225Z,11.03
2018-10-01T17:40:33.937Z,10.98
2018-10-01T17:43:04.439Z,10.82
2018-10-01T17:45:34.029Z,10.74
2018-10-01T17:48:04.179Z,10.69
2018-10-01T17:50:34.214Z,10.67
2018-10-01T17:53:04.147Z,10.62
2018-10-01T17:55:34.729Z,10.59
2018-10-01T17:58:04.545Z,10.54
2018-10-01T18:00:33.989Z,10.51
2018-10-01T18:03:04.173Z,10.51
2018-10-01T18:05:35.175Z,10.51
2018-10-01T18:08:04.660Z,10.50
2018-10-01T18:10:34.622Z,10.47
2018-10-01T18:13:04.741Z,10.42
2018-10-01T18:15:35.501Z,10.38
2018-10-01T18:18:05.571Z,10.37
2018-10-01T18:20:35.541Z,10.38
2018-10-01T18:23:06.483Z,10.41
2018-10-01T18:25:36.856Z,10.52
2018-10-01T18:28:12.249Z,10.76
2018-10-01T18:30:42.233Z,10.82
2018-10-01T18:33:12.293Z,10.98
2018-10-01T18:35:42.668Z,10.95
2018-10-01T18:38:12.696Z,10.86
2018-10-01T18:40:42.320Z,10.77
2018-10-01T18:43:13.981Z,10.61
2018-10-01T18:45:43.911Z,10.31
2018-10-01T18:48:13.661Z,9.98
2018-10-01T18:50:43.313Z,9.75
2018-10-01T18:53:13.096Z,9.72
2018-10-01T18:55:42.872Z,9.59
2018-10-01T18:58:19.523Z,9.28
2018-10-01T19:00:53.473Z,9.25
2018-10-01T19:03:23.450Z,9.06
2018-10-01T19:05:53.154Z,8.98
2018-10-01T19:08:23.041Z,9.05
2018-10-01T19:10:52.772Z,9.02
2018-10-01T19:13:24.816Z,8.97
2018-10-01T19:15:55.090Z,8.90
2018-10-01T19:18:30.263Z,8.89
2018-10-01T19:21:00.256Z,8.89
2018-10-01T19:23:31.315Z,8.87
2018-10-01T19:26:01.779Z,8.83
2018-10-01T19:28:31.721Z,8.86
2018-10-01T19:31:07.344Z,8.87
2018-10-01T19:33:37.415Z,8.89
2018-10-01T19:36:07.770Z,9.01
2018-10-01T19:38:37.829Z,8.94
2018-10-01T19:41:08.199Z,8.96
2018-10-01T19:43:38.283Z,8.98
2018-10-01T19:46:08.739Z,9.00
2018-10-01T19:48:40.130Z,8.97
2018-10-01T19:51:10.590Z,9.01
2018-10-01T19:53:40.128Z,9.04
2018-10-01T19:56:10.104Z,9.10
2018-10-01T19:58:39.958Z,9.11
2018-10-01T20:01:09.779Z,9.09
2018-10-01T20:03:39.622Z,9.02
2018-10-01T20:06:09.416Z,9.03
2018-10-01T20:08:40.323Z,8.95
2018-10-01T20:11:10.313Z,8.94
2018-10-01T20:13:40.188Z,9.09
2018-10-01T20:16:09.990Z,9.04
2018-10-01T20:18:39.758Z,9.14
2018-10-01T20:21:09.671Z,9.03
2018-10-01T20:23:39.490Z,9.06
2018-10-01T20:26:09.403Z,8.97
2018-10-01T20:28:39.361Z,9.01
2018-10-01T20:31:09.094Z,9.06
2018-10-01T20:33:39.166Z,9.07
2018-10-01T20:36:09.112Z,9.08
2018-10-01T20:38:39.016Z,9.15
2018-10-01T20:41:09.093Z,9.08
2018-10-01T20:43:38.801Z,9.10
2018-10-01T20:46:09.120Z,9.09
2018-10-01T20:48:38.887Z,9.09
2018-10-01T20:51:08.476Z,9.06
2018-10-01T20:53:38.290Z,9.02
2018-10-01T20:56:07.933Z,9.14
2018-10-01T20:58:38.211Z,9.13
2018-10-01T21:01:08.131Z,9.04
2018-10-01T21:03:37.703Z,9.14
2018-10-01T21:06:07.710Z,9.12
2018-10-01T21:08:37.631Z,9.10
2018-10-01T21:11:07.697Z,9.00
2018-10-01T21:13:37.590Z,9.05
2018-10-01T21:16:07.729Z,8.85
2018-10-01T21:18:37.544Z,8.83
2018-10-01T21:21:07.079Z,8.66
2018-10-01T21:23:36.805Z,8.62
2018-10-01T21:26:06.885Z,8.58
2018-10-01T21:28:36.731Z,8.49
2018-10-01T21:31:06.199Z,8.40
2018-10-01T21:33:35.727Z,8.37
2018-10-01T21:36:05.503Z,8.36
2018-10-01T21:38:35.066Z,8.26
2018-10-01T21:41:04.925Z,8.33
2018-10-01T21:43:34.797Z,8.26
2018-10-01T21:46:04.375Z,8.28
2018-10-01T21:48:33.751Z,8.16
2018-10-01T21:51:03.559Z,8.19
2018-10-01T21:53:33.395Z,8.21
2018-10-01T21:56:02.926Z,8.17
2018-10-01T21:58:32.754Z,8.23
2018-10-01T22:01:07.931Z,8.24
2018-10-01T22:03:37.713Z,8.33
2018-10-01T22:06:07.525Z,8.36
2018-10-01T22:08:37.383Z,8.48
2018-10-01T22:11:07.264Z,8.52
2018-10-01T22:13:36.782Z,8.62
2018-10-01T22:16:06.567Z,8.67
2018-10-01T22:18:36.333Z,8.75
2018-10-01T22:21:06.175Z,8.84
2018-10-01T22:23:35.950Z,8.83
2018-10-01T22:26:05.711Z,8.80
2018-10-01T22:28:35.107Z,8.89
2018-10-01T22:31:04.914Z,8.88
2018-10-01T22:33:34.719Z,8.81
2018-10-01T22:36:04.509Z,8.95
2018-10-01T22:38:34.387Z,8.89
2018-10-01T22:41:04.219Z,8.87
2018-10-01T22:43:34.051Z,8.97
2018-10-01T22:46:03.492Z,8.98
2018-10-01T22:48:33.333Z,8.94
2018-10-01T22:51:02.874Z,8.94
2018-10-01T22:53:32.650Z,8.98
2018-10-01T22:56:02.470Z,8.87
2018-10-01T22:58:32.310Z,8.85
2018-10-01T23:01:02.089Z,8.81
2018-10-01T23:03:31.842Z,8.62
2018-10-01T23:06:01.526Z,8.59
2018-10-01T23:08:31.389Z,8.34
2018-10-01T23:11:01.231Z,8.30
2018-10-01T23:13:31.035Z,8.29
2018-10-01T23:16:00.820Z,8.07
2018-10-01T23:18:30.308Z,8.09
2018-10-01T23:21:00.240Z,8.00
2018-10-01T23:23:30.382Z,7.86
2018-10-01T23:25:59.893Z,7.82
2018-10-01T23:28:29.714Z,7.74
2018-10-01T23:30:59.674Z,7.75
2018-10-01T23:33:29.478Z,7.70
2018-10-01T23:35:58.872Z,7.73
2018-10-01T23:38:28.793Z,7.69
2018-10-01T23:40:58.530Z,7.57
2018-10-01T23:43:28.090Z,7.51
2018-10-01T23:45:57.919Z,7.51
2018-10-01T23:48:27.756Z,7.64
2018-10-01T23:50:57.218Z,7.61
2018-10-01T23:53:27.076Z,7.57
2018-10-01T23:55:56.887Z,7.60
2018-10-01T23:58:26.686Z,7.70
